Airfield :
LOGIN :

Register | Disclaimer

   EN    FR    IT 

 










Legend :    VFR   Marginal VFR   IFR   Intensive IFR   Very Intensive IFR
Visi :
Ceiling :
>= 8 km
>= 3000ft
5 to 8 km
1000 to 3000 ft
1500m to 5 km
500 to 1000 ft
800 to 1500m
200 to 500 ft
< 800m
< 200 ft
Symbols :   Thunderstorms  Fog  Heavy snow  Heavy precipitations  Wind > 20 kt
SIGMETs :     Misc.  Thunderstorms  Icing  Turbulence  Mountain Waves  Volcanic Ashes







- Airport Elevation : 1247 ft
- IATA code : PRG


LKPR - Praha Ruzyne

CURRENT METAR :
  • 190230Z 23013KT 9999 -RA SCT012 BKN028 02/00 Q1011 NOSIG

EXPIRED METARs :
  • 190224Z 23013KT 9999 BKN013 BKN030 02/00 Q1011 RMK REG QNH 1008
  • 190200Z 23012KT 9999 FEW017 BKN030 03/00 Q1011 NOSIG
  • 190130Z 24013KT 9999 SCT023 BKN040 03/00 Q1011 NOSIG
  • 190100Z 24015KT 9999 SCT025 BKN035 03/M00 Q1012 NOSIG
  • 190030Z 24017KT 9999 FEW035 03/M00 Q1012 NOSIG
  • 190000Z 24015KT 9999 -RA BKN035 03/M00 Q1012 NOSIG

TAF TAF LKPR
Valid from the 19 at 00:00 until the 20 at 06:00 UTC


182300Z 1900/2006 24014KT 9999 BKN035
TEMPO 1900/2006 27016G30KT 3000 SHRASN FEW012TCU BKN015
No reported NOTAMs for that airfield.



MET'MAP, your aeronautical weather chart ! - Copyright ORBIFLY December 2007 - Disclaimer

ORBIFLY MET'MAP TEAM :

Programming & Development : Alexandra Zaïnal
Concept & Development : Baudouin d'Aumeries
Co-Development & Prog : Marc-Olivier Méhu
Technical & hardware support : Manuel Goepfert

Contact : metmap@orbifly.com




SOURCES & CREDITS :

   NOAA